createdAt,value
2023-03-14T00:01:28.345Z,3.00
2023-03-14T00:03:57.130Z,2.95
2023-03-14T00:06:26.058Z,3.17
2023-03-14T00:08:56.090Z,2.98
2023-03-14T00:11:26.903Z,3.10
2023-03-14T00:13:55.837Z,3.30
2023-03-14T00:16:27.222Z,2.77
2023-03-14T00:18:56.021Z,2.72
2023-03-14T00:21:25.087Z,3.15
2023-03-14T00:23:54.956Z,3.22
2023-03-14T00:26:24.103Z,3.30
2023-03-14T00:28:53.591Z,2.92
2023-03-14T00:31:22.875Z,3.33
2023-03-14T00:33:53.292Z,2.77
2023-03-14T00:36:23.005Z,3.08
2023-03-14T00:38:51.950Z,3.55
2023-03-14T00:41:23.938Z,2.70
2023-03-14T00:43:54.018Z,3.10
2023-03-14T00:46:22.845Z,2.67
2023-03-14T00:48:52.156Z,3.25
2023-03-14T00:51:20.817Z,2.90
2023-03-14T00:53:50.586Z,3.33
2023-03-14T00:56:21.018Z,2.75
2023-03-14T00:58:56.392Z,2.95
2023-03-14T01:01:25.393Z,3.40
2023-03-14T01:03:56.153Z,3.00
2023-03-14T01:06:28.349Z,3.08
2023-03-14T01:08:58.439Z,2.62
2023-03-14T01:11:31.834Z,2.80
2023-03-14T01:14:00.901Z,3.08
2023-03-14T01:16:33.921Z,3.08
2023-03-14T01:19:06.584Z,3.20
2023-03-14T01:21:36.132Z,2.52
2023-03-14T01:24:06.313Z,3.30
2023-03-14T01:26:36.860Z,3.27
2023-03-14T01:29:06.980Z,2.55
2023-03-14T01:31:37.719Z,3.45
2023-03-14T01:34:07.981Z,3.40
2023-03-14T01:36:37.536Z,2.70
2023-03-14T01:39:09.834Z,2.60
2023-03-14T01:41:39.313Z,3.12
2023-03-14T01:44:13.272Z,3.00
2023-03-14T01:46:47.572Z,3.12
2023-03-14T01:49:34.358Z,2.72
2023-03-14T01:52:23.037Z,2.83
2023-03-14T01:54:59.511Z,2.80
2023-03-14T01:57:34.620Z,2.85
2023-03-14T02:00:15.277Z,4.15
2023-03-14T02:02:52.854Z,3.10
2023-03-14T02:05:33.349Z,2.27
2023-03-14T02:08:10.104Z,2.65
2023-03-14T02:10:49.706Z,2.40
2023-03-14T02:13:21.248Z,2.80
2023-03-14T02:16:08.121Z,2.20
2023-03-14T02:18:46.234Z,2.83
2023-03-14T02:21:38.067Z,2.65
2023-03-14T02:24:34.425Z,2.62
2023-03-14T02:27:14.890Z,2.70
2023-03-14T02:29:57.394Z,3.22
2023-03-14T02:32:26.930Z,2.92
2023-03-14T02:35:01.626Z,2.77
2023-03-14T02:37:40.287Z,2.70
2023-03-14T02:40:10.468Z,2.35
2023-03-14T02:42:40.804Z,2.50
2023-03-14T02:45:16.559Z,2.95
2023-03-14T02:47:57.478Z,2.90
2023-03-14T02:50:30.320Z,3.17
2023-03-14T02:52:59.603Z,3.27
2023-03-14T02:55:28.792Z,3.17
2023-03-14T02:58:00.967Z,3.40
2023-03-14T03:00:31.592Z,2.98
2023-03-14T03:03:01.625Z,2.72
2023-03-14T03:05:31.574Z,3.30
2023-03-14T03:08:03.806Z,3.40
2023-03-14T03:10:35.261Z,3.12
2023-03-14T03:13:04.346Z,3.27
2023-03-14T03:15:33.430Z,3.33
2023-03-14T03:18:04.400Z,2.55
2023-03-14T03:20:33.216Z,2.52
2023-03-14T03:23:02.371Z,3.33
2023-03-14T03:25:33.279Z,3.33
2023-03-14T03:28:05.253Z,2.92
2023-03-14T03:30:40.234Z,3.05
2023-03-14T03:33:09.313Z,2.60
2023-03-14T03:35:47.834Z,2.85
2023-03-14T03:38:20.661Z,2.80
2023-03-14T03:40:52.153Z,3.22
2023-03-14T03:43:21.759Z,2.98
2023-03-14T03:45:51.703Z,3.05
2023-03-14T03:48:21.438Z,3.10
2023-03-14T03:50:50.247Z,2.65
2023-03-14T03:53:32.834Z,3.05
2023-03-14T03:55:53.831Z,2.85
2023-03-14T03:58:22.795Z,2.75
2023-03-14T04:00:51.645Z,2.50
2023-03-14T04:03:21.460Z,2.85
2023-03-14T04:06:05.724Z,2.62
2023-03-14T04:08:36.987Z,2.80
2023-03-14T04:11:07.492Z,2.72
2023-03-14T04:13:58.121Z,2.60
2023-03-14T04:16:26.929Z,2.67
2023-03-14T04:18:59.018Z,2.45
2023-03-14T04:21:28.902Z,2.83
2023-03-14T04:24:00.260Z,3.22
2023-03-14T04:26:31.105Z,2.75
2023-03-14T04:29:00.520Z,2.50
2023-03-14T04:31:30.763Z,2.52
2023-03-14T04:34:00.846Z,2.40
2023-03-14T04:36:31.894Z,2.62
2023-03-14T04:39:02.512Z,2.65
2023-03-14T04:41:33.097Z,2.40
2023-03-14T04:44:02.563Z,2.33
2023-03-14T04:46:33.076Z,2.30
2023-03-14T04:49:03.364Z,2.70
2023-03-14T04:51:32.484Z,2.83
2023-03-14T04:54:01.480Z,2.50
2023-03-14T04:56:32.320Z,2.50
2023-03-14T04:59:02.041Z,2.72
2023-03-14T05:01:32.153Z,2.60
2023-03-14T05:04:06.104Z,2.77
2023-03-14T05:06:40.502Z,2.58
2023-03-14T05:09:18.383Z,2.67
2023-03-14T05:11:50.122Z,2.35
2023-03-14T05:14:40.306Z,2.40
2023-03-14T05:17:14.465Z,5.53
2023-03-14T05:20:03.580Z,2.35
2023-03-14T05:22:37.746Z,2.62
2023-03-14T05:25:09.757Z,3.12
2023-03-14T05:27:40.582Z,2.98
2023-03-14T05:30:20.965Z,2.70
2023-03-14T05:32:55.507Z,3.37
2023-03-14T05:35:35.132Z,2.77
2023-03-14T05:38:15.459Z,3.20
2023-03-14T05:40:46.708Z,2.92
2023-03-14T05:43:34.028Z,2.95
2023-03-14T05:46:18.459Z,3.75
2023-03-14T05:48:50.237Z,4.92
2023-03-14T05:51:27.077Z,3.10
2023-03-14T05:54:16.633Z,3.08
2023-03-14T05:56:50.173Z,2.98
2023-03-14T05:59:35.776Z,2.60
2023-03-14T06:02:15.939Z,3.15
2023-03-14T06:04:51.693Z,2.55
2023-03-14T06:07:22.114Z,3.00
2023-03-14T06:09:51.092Z,3.40
2023-03-14T06:12:21.492Z,3.72
2023-03-14T06:14:50.442Z,3.00
2023-03-14T06:17:20.470Z,3.10
2023-03-14T06:19:52.712Z,2.90
2023-03-14T06:22:22.355Z,2.72
2023-03-14T06:24:52.785Z,2.60
2023-03-14T06:27:24.079Z,2.67
2023-03-14T06:29:57.089Z,3.33
2023-03-14T06:32:28.275Z,2.83
2023-03-14T06:35:01.549Z,2.33
2023-03-14T06:37:31.743Z,3.40
2023-03-14T06:40:01.246Z,5.28
2023-03-14T06:42:34.267Z,4.05
2023-03-14T06:45:04.899Z,3.08
2023-03-14T06:47:33.837Z,2.72
2023-03-14T06:50:05.442Z,3.52
2023-03-14T06:52:36.255Z,2.85
2023-03-14T06:55:07.229Z,2.90
2023-03-14T06:57:36.660Z,2.77
2023-03-14T07:00:07.928Z,2.55
2023-03-14T07:02:43.085Z,2.45
2023-03-14T07:05:12.487Z,2.55
2023-03-14T07:07:43.226Z,3.22
2023-03-14T07:10:12.943Z,2.42
2023-03-14T07:12:43.346Z,2.90
2023-03-14T07:17:45.793Z,3.00
2023-03-14T07:20:16.611Z,2.95
2023-03-14T07:22:50.136Z,2.90
2023-03-14T07:25:20.007Z,2.80
2023-03-14T07:27:50.035Z,2.60
2023-03-14T07:30:19.638Z,2.70
2023-03-14T07:32:52.242Z,3.02
2023-03-14T07:35:24.092Z,3.30
2023-03-14T07:37:53.314Z,3.25
2023-03-14T07:40:24.735Z,3.05
2023-03-14T07:42:56.183Z,3.05
2023-03-14T07:45:32.066Z,3.33
2023-03-14T07:48:02.977Z,2.90
2023-03-14T07:50:32.212Z,3.22
2023-03-14T07:53:01.477Z,3.30
2023-03-14T07:55:30.575Z,3.17
2023-03-14T07:58:02.645Z,3.20
2023-03-14T08:00:32.472Z,3.70
2023-03-14T08:03:01.161Z,3.72
2023-03-14T08:05:30.564Z,2.72
2023-03-14T08:07:59.314Z,3.47
2023-03-14T08:10:29.682Z,2.92
2023-03-14T08:12:59.887Z,3.42
2023-03-14T08:15:30.533Z,3.62
2023-03-14T08:18:01.609Z,3.58
2023-03-14T08:20:30.682Z,3.12
2023-03-14T08:23:02.599Z,3.00
2023-03-14T08:25:33.217Z,3.12
2023-03-14T08:28:02.240Z,4.33
2023-03-14T08:30:32.772Z,3.20
2023-03-14T08:33:02.285Z,4.65
2023-03-14T08:35:31.824Z,3.98
2023-03-14T08:38:01.984Z,2.80
2023-03-14T08:40:31.010Z,3.20
2023-03-14T08:43:01.606Z,3.02
2023-03-14T08:45:31.274Z,3.50
2023-03-14T08:48:00.487Z,3.30
2023-03-14T08:50:30.829Z,3.10
2023-03-14T08:53:01.583Z,2.62
2023-03-14T08:55:30.862Z,5.25
2023-03-14T08:58:02.090Z,6.62
2023-03-14T09:00:33.196Z,3.05
2023-03-14T09:03:02.389Z,2.70
2023-03-14T09:05:36.085Z,2.85
2023-03-14T09:08:07.254Z,2.98
2023-03-14T09:10:39.368Z,2.90
2023-03-14T09:13:13.481Z,3.50
2023-03-14T09:18:32.844Z,3.00
2023-03-14T09:21:05.443Z,3.10
2023-03-14T09:23:34.175Z,3.00
2023-03-14T09:26:03.387Z,2.90
2023-03-14T09:28:32.439Z,3.35
2023-03-14T09:31:09.577Z,2.80
2023-03-14T09:33:38.710Z,3.25
2023-03-14T09:36:08.715Z,3.17
2023-03-14T09:38:37.829Z,2.90
2023-03-14T09:41:28.935Z,2.85
2023-03-14T09:44:23.289Z,3.00
2023-03-14T09:46:56.354Z,2.62
2023-03-14T09:49:33.940Z,2.95
2023-03-14T09:52:05.642Z,2.85
2023-03-14T09:54:44.593Z,2.77
2023-03-14T09:57:16.885Z,2.27
2023-03-14T09:59:49.699Z,4.03
2023-03-14T10:02:24.912Z,3.08
2023-03-14T10:04:56.242Z,2.60
2023-03-14T10:07:32.831Z,2.58
2023-03-14T10:10:08.862Z,2.50
2023-03-14T10:15:15.460Z,1.90
2023-03-14T10:17:49.797Z,2.85
2023-03-14T10:20:37.476Z,3.22
2023-03-14T10:23:17.111Z,2.60
2023-03-14T10:26:03.364Z,2.58
2023-03-14T10:28:47.969Z,2.50
2023-03-14T10:31:19.042Z,2.50
2023-03-14T10:34:05.419Z,2.92
2023-03-14T10:36:35.359Z,2.50
2023-03-14T10:39:26.657Z,2.30
2023-03-14T10:41:59.986Z,3.15
2023-03-14T10:44:30.021Z,4.20
2023-03-14T10:47:04.162Z,3.12
2023-03-14T10:49:36.711Z,2.60
2023-03-14T10:52:51.078Z,3.33
2023-03-14T10:55:06.673Z,2.65
2023-03-14T10:57:43.614Z,2.60
2023-03-14T11:00:23.775Z,2.70
2023-03-14T11:03:01.139Z,2.47
2023-03-14T11:05:50.064Z,2.72
2023-03-14T11:08:33.542Z,2.35
2023-03-14T11:11:17.097Z,2.77
2023-03-14T11:13:56.050Z,2.55
2023-03-14T11:17:12.748Z,2.65
2023-03-14T11:19:55.805Z,2.42
2023-03-14T11:22:44.388Z,2.20
2023-03-14T11:25:33.445Z,2.30
2023-03-14T11:28:13.399Z,2.22
2023-03-14T11:30:58.665Z,2.08
2023-03-14T11:33:40.137Z,1.90
2023-03-14T11:36:11.782Z,1.90
2023-03-14T11:38:53.866Z,1.90
2023-03-14T11:41:40.574Z,1.75
2023-03-14T11:44:29.345Z,2.30
2023-03-14T11:47:19.147Z,1.80
2023-03-14T11:50:08.743Z,1.67
2023-03-14T11:53:00.108Z,1.70
2023-03-14T11:55:33.758Z,2.00
2023-03-14T11:58:24.282Z,1.98
2023-03-14T12:00:55.290Z,1.60
2023-03-14T12:03:46.280Z,1.50
2023-03-14T12:06:38.627Z,1.57
2023-03-14T12:09:07.895Z,1.87
2023-03-14T12:12:01.709Z,1.90
2023-03-14T12:14:36.927Z,1.75
2023-03-14T12:17:24.382Z,1.90
2023-03-14T12:20:18.582Z,2.33
2023-03-14T12:23:01.251Z,1.92
2023-03-14T12:25:31.790Z,2.00
2023-03-14T12:28:14.025Z,1.65
2023-03-14T12:30:43.724Z,1.77
2023-03-14T12:33:24.191Z,1.72
2023-03-14T12:35:55.668Z,1.95
2023-03-14T12:38:29.975Z,1.90
2023-03-14T12:41:30.476Z,1.70
2023-03-14T12:44:21.262Z,1.90
2023-03-14T12:46:50.586Z,2.10
2023-03-14T12:49:19.596Z,1.92
2023-03-14T12:51:48.251Z,1.90
2023-03-14T12:54:24.939Z,1.70
2023-03-14T12:57:30.379Z,1.90
2023-03-14T13:00:01.895Z,1.52
2023-03-14T13:02:43.016Z,1.80
2023-03-14T13:05:20.311Z,1.35
2023-03-14T13:08:04.024Z,1.20
2023-03-14T13:10:44.148Z,1.42
2023-03-14T13:13:26.444Z,1.32
2023-03-14T13:16:02.636Z,1.72
2023-03-14T13:21:18.016Z,1.30
2023-03-14T13:24:01.131Z,1.50
2023-03-14T13:26:43.060Z,1.60
2023-03-14T13:29:31.932Z,1.47
2023-03-14T13:32:05.363Z,1.40
2023-03-14T13:34:34.937Z,1.55
2023-03-14T13:37:05.414Z,1.30
2023-03-14T13:39:36.280Z,1.90
2023-03-14T13:42:13.091Z,1.60
2023-03-14T13:44:42.526Z,1.67
2023-03-14T13:47:17.935Z,1.40
2023-03-14T13:49:47.259Z,2.00
2023-03-14T13:52:38.375Z,1.30
2023-03-14T13:55:17.442Z,1.75
2023-03-14T13:57:48.722Z,2.72
2023-03-14T14:00:29.075Z,1.50
2023-03-14T14:03:00.107Z,1.55
2023-03-14T14:05:30.480Z,1.85
2023-03-14T14:08:00.052Z,1.92
2023-03-14T14:10:29.513Z,2.37
2023-03-14T14:13:02.236Z,2.20
2023-03-14T14:15:33.431Z,2.40
2023-03-14T14:18:05.151Z,2.50
2023-03-14T14:20:45.881Z,2.72
2023-03-14T14:23:23.469Z,2.08
2023-03-14T14:25:53.478Z,1.50
2023-03-14T14:28:29.793Z,1.60
2023-03-14T14:31:22.186Z,1.80
2023-03-14T14:34:01.805Z,1.70
2023-03-14T14:36:41.595Z,1.30
2023-03-14T14:39:22.597Z,1.80
2023-03-14T14:41:52.202Z,2.83
2023-03-14T14:44:32.318Z,1.45
2023-03-14T14:47:03.966Z,2.12
2023-03-14T14:49:34.277Z,1.57
2023-03-14T14:52:23.431Z,1.17
2023-03-14T14:54:57.980Z,1.80
2023-03-14T14:57:35.101Z,1.30
2023-03-14T15:00:15.679Z,1.15
2023-03-14T15:02:49.274Z,1.50
2023-03-14T15:05:21.454Z,2.27
2023-03-14T15:07:50.360Z,1.55
2023-03-14T15:10:22.222Z,1.20
2023-03-14T15:12:50.902Z,2.17
2023-03-14T15:15:20.055Z,1.32
2023-03-14T15:17:49.760Z,1.65
2023-03-14T15:20:20.225Z,3.02
2023-03-14T15:22:49.102Z,2.90
2023-03-14T15:25:40.092Z,2.30
2023-03-14T15:27:48.963Z,2.00
2023-03-14T15:30:20.430Z,2.08
2023-03-14T15:32:51.158Z,1.67
2023-03-14T15:35:20.410Z,1.50
2023-03-14T15:37:50.722Z,1.40
2023-03-14T15:40:19.867Z,1.55
2023-03-14T15:42:51.437Z,1.72
2023-03-14T15:45:24.641Z,1.60
2023-03-14T15:47:53.632Z,1.57
2023-03-14T15:50:24.413Z,1.42
2023-03-14T15:52:56.431Z,1.60
2023-03-14T15:55:26.325Z,1.52
2023-03-14T15:57:55.922Z,2.58
2023-03-14T16:00:27.384Z,1.50
2023-03-14T16:02:57.428Z,1.47
2023-03-14T16:05:28.354Z,1.67
2023-03-14T16:07:57.276Z,1.20
2023-03-14T16:10:29.504Z,1.50
2023-03-14T16:12:59.287Z,1.35
2023-03-14T16:15:29.158Z,1.32
2023-03-14T16:18:06.476Z,2.20
2023-03-14T16:20:45.449Z,1.65
2023-03-14T16:23:03.533Z,1.60
2023-03-14T16:25:33.832Z,1.80
2023-03-14T16:28:10.635Z,1.75
2023-03-14T16:30:36.011Z,1.90
2023-03-14T16:33:11.439Z,1.80
2023-03-14T16:35:39.614Z,1.70
2023-03-14T16:38:10.044Z,1.57
2023-03-14T16:40:40.278Z,2.50
2023-03-14T16:43:16.024Z,2.40
2023-03-14T16:45:47.105Z,2.45
2023-03-14T16:48:20.576Z,2.25
2023-03-14T16:50:50.920Z,2.37
2023-03-14T16:53:19.529Z,2.17
2023-03-14T16:55:50.431Z,1.77
2023-03-14T16:58:20.749Z,2.22
2023-03-14T17:00:50.747Z,2.00
2023-03-14T17:03:19.325Z,2.10
2023-03-14T17:05:50.547Z,2.22
2023-03-14T17:08:20.383Z,2.05
2023-03-14T17:10:49.221Z,1.62
2023-03-14T17:13:18.941Z,1.92
2023-03-14T17:15:55.412Z,1.85
2023-03-14T17:18:25.860Z,1.98
2023-03-14T17:20:55.688Z,1.98
2023-03-14T17:23:25.232Z,1.90
2023-03-14T17:25:54.606Z,2.22
2023-03-14T17:28:26.327Z,1.82
2023-03-14T17:31:10.204Z,1.60
2023-03-14T17:33:40.652Z,1.65
2023-03-14T17:36:09.669Z,1.67
2023-03-14T17:38:39.863Z,1.92
2023-03-14T17:41:13.458Z,1.80
2023-03-14T17:43:42.068Z,1.57
2023-03-14T17:46:14.459Z,1.60
2023-03-14T17:48:46.241Z,2.12
2023-03-14T17:51:16.693Z,1.40
2023-03-14T17:53:47.730Z,1.47
2023-03-14T17:56:16.704Z,1.45
2023-03-14T17:58:46.356Z,1.75
2023-03-14T18:01:17.948Z,1.50
2023-03-14T18:03:48.638Z,1.55
2023-03-14T18:06:17.690Z,1.47
2023-03-14T18:08:47.017Z,1.45
2023-03-14T18:11:17.731Z,1.45
2023-03-14T18:13:48.166Z,1.60
2023-03-14T18:16:17.235Z,1.35
2023-03-14T18:18:49.259Z,1.25
2023-03-14T18:21:19.204Z,1.42
2023-03-14T18:23:48.757Z,1.30
2023-03-14T18:26:18.842Z,1.30
2023-03-14T18:28:47.832Z,1.30
2023-03-14T18:31:20.216Z,1.12
2023-03-14T18:33:52.063Z,1.42
2023-03-14T18:36:22.484Z,1.12
2023-03-14T18:38:53.556Z,1.30
2023-03-14T18:41:23.407Z,1.10
2023-03-14T18:43:53.723Z,1.50
2023-03-14T18:46:23.908Z,1.50
2023-03-14T18:49:00.490Z,1.30
2023-03-14T18:51:30.411Z,1.77
2023-03-14T18:54:08.779Z,1.40
2023-03-14T18:56:31.593Z,1.50
2023-03-14T18:59:00.959Z,1.87
2023-03-14T19:01:31.478Z,1.65
2023-03-14T19:04:00.277Z,1.27
2023-03-14T19:06:34.055Z,1.70
2023-03-14T19:09:06.132Z,1.15
2023-03-14T19:11:35.636Z,1.60
2023-03-14T19:14:05.873Z,1.10
2023-03-14T19:16:34.873Z,1.37
2023-03-14T19:19:04.687Z,1.40
2023-03-14T19:21:35.352Z,1.65
2023-03-14T19:24:06.981Z,1.40
2023-03-14T19:26:37.380Z,1.40
2023-03-14T19:29:06.811Z,1.30
2023-03-14T19:31:35.743Z,1.70
2023-03-14T19:34:04.734Z,1.50
2023-03-14T19:36:36.332Z,1.67
2023-03-14T19:39:05.962Z,1.40
2023-03-14T19:41:35.621Z,1.52
2023-03-14T19:44:04.470Z,1.50
2023-03-14T19:46:35.790Z,1.52
2023-03-14T19:49:05.741Z,1.80
2023-03-14T19:51:35.676Z,1.87
2023-03-14T19:54:06.286Z,1.90
2023-03-14T19:56:38.421Z,1.87
2023-03-14T19:59:08.998Z,1.65
2023-03-14T20:01:38.474Z,1.77
2023-03-14T20:04:07.525Z,1.70
2023-03-14T20:06:37.813Z,1.80
2023-03-14T20:09:06.527Z,1.80
2023-03-14T20:11:41.125Z,1.75
2023-03-14T20:14:11.044Z,1.90
2023-03-14T20:16:41.448Z,1.80
2023-03-14T20:19:12.974Z,2.20
2023-03-14T20:21:42.799Z,2.00
2023-03-14T20:24:14.408Z,1.85
2023-03-14T20:26:43.250Z,1.90
2023-03-14T20:29:15.026Z,1.72
2023-03-14T20:31:45.922Z,1.80
2023-03-14T20:34:15.396Z,1.85
2023-03-14T20:36:46.058Z,1.90
2023-03-14T20:39:15.225Z,1.98
2023-03-14T20:41:44.494Z,1.90
2023-03-14T20:44:14.715Z,2.55
2023-03-14T20:46:44.303Z,2.50
2023-03-14T20:49:13.477Z,2.60
2023-03-14T20:51:42.766Z,2.37
2023-03-14T20:54:15.643Z,2.00
2023-03-14T20:56:46.017Z,2.40
2023-03-14T20:59:15.774Z,2.05
2023-03-14T21:01:47.515Z,2.50
2023-03-14T21:04:16.565Z,2.08
2023-03-14T21:06:46.881Z,2.40
2023-03-14T21:09:17.057Z,2.55
2023-03-14T21:11:47.059Z,2.27
2023-03-14T21:14:18.680Z,2.40
2023-03-14T21:16:52.318Z,2.58
2023-03-14T21:19:21.909Z,2.50
2023-03-14T21:21:53.743Z,2.22
2023-03-14T21:24:25.093Z,2.83
2023-03-14T21:26:55.361Z,2.70
2023-03-14T21:29:24.591Z,2.87
2023-03-14T21:31:53.273Z,2.80
2023-03-14T21:34:24.145Z,3.08
2023-03-14T21:36:55.474Z,3.27
2023-03-14T21:39:24.098Z,2.92
2023-03-14T21:41:54.891Z,3.12
2023-03-14T21:44:23.870Z,3.30
2023-03-14T21:46:52.730Z,3.10
2023-03-14T21:49:24.116Z,2.90
2023-03-14T21:51:52.776Z,3.20
2023-03-14T21:54:21.857Z,2.98
2023-03-14T21:56:50.981Z,3.47
2023-03-14T21:59:19.737Z,3.25
2023-03-14T22:01:49.351Z,3.37
2023-03-14T22:04:18.347Z,3.15
2023-03-14T22:06:48.485Z,3.12
2023-03-14T22:09:17.392Z,3.02
2023-03-14T22:11:46.932Z,3.60
2023-03-14T22:14:16.051Z,3.95
2023-03-14T22:16:44.846Z,3.47
2023-03-14T22:19:14.628Z,3.90
2023-03-14T22:21:46.111Z,3.58
2023-03-14T22:24:15.411Z,3.40
2023-03-14T22:26:44.465Z,3.60
2023-03-14T22:29:13.432Z,3.42
2023-03-14T22:31:42.196Z,3.42
2023-03-14T22:34:12.066Z,3.50
2023-03-14T22:36:40.913Z,3.45
2023-03-14T22:39:11.400Z,3.62
2023-03-14T22:41:40.886Z,3.40
2023-03-14T22:44:09.679Z,3.20
2023-03-14T22:46:38.422Z,3.33
2023-03-14T22:49:07.805Z,3.52
2023-03-14T22:51:38.415Z,3.50
2023-03-14T22:54:07.601Z,2.95
2023-03-14T22:56:37.248Z,3.50
2023-03-14T22:59:06.151Z,3.33
2023-03-14T23:01:34.829Z,3.37
2023-03-14T23:04:04.892Z,3.50
2023-03-14T23:06:33.598Z,3.30
2023-03-14T23:09:04.315Z,3.40
2023-03-14T23:11:35.205Z,2.65
2023-03-14T23:14:04.007Z,3.42
2023-03-14T23:16:40.730Z,3.00
2023-03-14T23:19:06.235Z,3.00
2023-03-14T23:21:34.968Z,3.27
2023-03-14T23:24:06.832Z,2.90
2023-03-14T23:26:37.095Z,3.40
2023-03-14T23:29:05.840Z,2.87
2023-03-14T23:31:35.458Z,2.90
2023-03-14T23:34:05.544Z,3.12
2023-03-14T23:36:36.258Z,3.58
2023-03-14T23:39:06.379Z,3.10
2023-03-14T23:41:35.118Z,3.10
2023-03-14T23:44:04.054Z,2.90
2023-03-14T23:46:34.226Z,2.80
2023-03-14T23:49:03.185Z,2.77
2023-03-14T23:51:31.974Z,2.92
2023-03-14T23:54:04.176Z,2.60
2023-03-14T23:56:33.695Z,2.22
2023-03-14T23:59:05.229Z,3.02
